Nampula, Nampula Airport (FQNP)

NameNampula Airport
CityNampula
CountryMozambique
ICAOFQNP
IATAAPL
Altitude440 m
CoordinatesGoogle Map
Live Air TrafficLiveATC.net
METARFQNP 211000Z 06006KT 9999 FEW020 33/17 Q1012
2019-10-21 10:00:00 Wind: Northeast (60°) 3.09 m/s - Visibility: > 10000 m - Temperature: 33 °C - Dew point: 17 °C - Humidity: 38.3% - Pressure: 1012 hPa

Sorry, no flights used the airport in this database.